sensor_id;sensor_type;location;lat;lon;timestamp;pressure;altitude;pressure_sealevel;temperature;humidity
52983;BME280;48698;45.736;13.926;2022-12-10T00:00:02;96109.63;;;9.53;100.00
52983;BME280;48698;45.736;13.926;2022-12-10T00:05:08;96053.00;;;9.18;100.00
52983;BME280;48698;45.736;13.926;2022-12-10T00:10:12;96097.88;;;9.32;100.00
52983;BME280;48698;45.736;13.926;2022-12-10T00:15:16;96100.25;;;9.24;100.00
52983;BME280;48698;45.736;13.926;2022-12-10T00:20:19;96146.09;;;9.50;100.00
52983;BME280;48698;45.736;13.926;2022-12-10T00:25:23;96142.09;;;9.44;100.00
52983;BME280;48698;45.736;13.926;2022-12-10T00:30:26;96132.09;;;9.35;100.00
52983;BME280;48698;45.736;13.926;2022-12-10T00:35:30;96092.28;;;8.99;100.00
52983;BME280;48698;45.736;13.926;2022-12-10T00:40:34;96095.38;;;9.05;100.00
52983;BME280;48698;45.736;13.926;2022-12-10T00:45:37;96079.91;;;8.99;100.00
52983;BME280;48698;45.736;13.926;2022-12-10T00:51:11;96119.94;;;9.20;100.00
52983;BME280;48698;45.736;13.926;2022-12-10T00:56:18;96105.00;;;9.06;100.00
52983;BME280;48698;45.736;13.926;2022-12-10T01:01:24;96127.88;;;9.20;100.00
52983;BME280;48698;45.736;13.926;2022-12-10T01:06:33;96116.75;;;9.15;100.00
52983;BME280;48698;45.736;13.926;2022-12-10T01:11:39;96122.59;;;9.20;100.00
52983;BME280;48698;45.736;13.926;2022-12-10T01:16:44;96103.31;;;9.05;100.00
52983;BME280;48698;45.736;13.926;2022-12-10T01:21:51;96109.47;;;9.06;100.00
52983;BME280;48698;45.736;13.926;2022-12-10T01:26:56;96123.66;;;9.17;100.00
52983;BME280;48698;45.736;13.926;2022-12-10T01:32:00;96073.47;;;8.78;100.00
52983;BME280;48698;45.736;13.926;2022-12-10T01:37:04;96126.63;;;9.13;100.00
52983;BME280;48698;45.736;13.926;2022-12-10T01:42:13;96097.38;;;9.02;100.00
52983;BME280;48698;45.736;13.926;2022-12-10T01:47:17;96126.41;;;9.16;100.00
52983;BME280;48698;45.736;13.926;2022-12-10T01:52:33;96106.59;;;9.09;100.00
52983;BME280;48698;45.736;13.926;2022-12-10T01:57:37;96109.03;;;8.99;100.00
52983;BME280;48698;45.736;13.926;2022-12-10T02:02:53;96123.47;;;9.08;100.00
52983;BME280;48698;45.736;13.926;2022-12-10T02:08:09;96117.19;;;9.09;100.00
52983;BME280;48698;45.736;13.926;2022-12-10T02:13:22;96123.03;;;9.01;100.00
52983;BME280;48698;45.736;13.926;2022-12-10T02:18:36;96091.66;;;8.82;100.00
52983;BME280;48698;45.736;13.926;2022-12-10T02:23:45;96073.47;;;8.78;100.00
52983;BME280;48698;45.736;13.926;2022-12-10T02:29:12;96107.97;;;9.02;100.00
52983;BME280;48698;45.736;13.926;2022-12-10T02:34:17;96095.38;;;8.93;100.00
52983;BME280;48698;45.736;13.926;2022-12-10T02:39:27;96096.97;;;9.08;100.00
52983;BME280;48698;45.736;13.926;2022-12-10T02:44:36;96093.16;;;9.24;100.00
52983;BME280;48698;45.736;13.926;2022-12-10T02:49:41;96022.19;;;8.92;100.00
52983;BME280;48698;45.736;13.926;2022-12-10T02:54:47;96041.47;;;8.94;100.00
52983;BME280;48698;45.736;13.926;2022-12-10T03:00:13;96076.91;;;9.29;100.00
52983;BME280;48698;45.736;13.926;2022-12-10T03:05:42;96075.03;;;9.06;100.00
52983;BME280;48698;45.736;13.926;2022-12-10T03:16:09;96082.97;;;9.06;100.00
52983;BME280;48698;45.736;13.926;2022-12-10T03:21:14;96057.03;;;9.11;100.00
52983;BME280;48698;45.736;13.926;2022-12-10T03:26:20;96041.47;;;9.06;100.00
52983;BME280;48698;45.736;13.926;2022-12-10T03:31:24;96059.13;;;9.18;100.00
52983;BME280;48698;45.736;13.926;2022-12-10T03:36:28;96096.63;;;9.38;100.00
52983;BME280;48698;45.736;13.926;2022-12-10T03:41:33;96093.13;;;9.12;100.00
52983;BME280;48698;45.736;13.926;2022-12-10T03:46:39;96025.59;;;8.68;100.00
52983;BME280;48698;45.736;13.926;2022-12-10T03:51:43;96028.34;;;8.79;100.00
52983;BME280;48698;45.736;13.926;2022-12-10T03:56:46;96050.78;;;8.99;100.00
52983;BME280;48698;45.736;13.926;2022-12-10T04:01:50;96078.09;;;9.38;100.00
52983;BME280;48698;45.736;13.926;2022-12-10T04:06:54;96061.91;;;8.92;100.00
52983;BME280;48698;45.736;13.926;2022-12-10T04:11:58;96070.91;;;8.89;100.00
52983;BME280;48698;45.736;13.926;2022-12-10T04:17:01;96047.28;;;8.99;100.00
52983;BME280;48698;45.736;13.926;2022-12-10T04:22:05;96036.28;;;8.79;100.00
52983;BME280;48698;45.736;13.926;2022-12-10T04:27:29;96023.28;;;8.76;100.00
52983;BME280;48698;45.736;13.926;2022-12-10T04:32:33;96034.25;;;8.96;100.00
52983;BME280;48698;45.736;13.926;2022-12-10T04:37:37;96028.34;;;8.92;100.00
52983;BME280;48698;45.736;13.926;2022-12-10T04:42:42;96024.31;;;8.87;100.00
52983;BME280;48698;45.736;13.926;2022-12-10T04:47:45;96031.53;;;8.85;100.00
52983;BME280;48698;45.736;13.926;2022-12-10T04:52:49;96028.97;;;8.96;100.00
52983;BME280;48698;45.736;13.926;2022-12-10T04:57:52;95949.22;;;8.51;100.00
52983;BME280;48698;45.736;13.926;2022-12-10T05:02:56;95959.13;;;8.60;100.00
52983;BME280;48698;45.736;13.926;2022-12-10T05:07:59;95934.16;;;8.14;100.00
52983;BME280;48698;45.736;13.926;2022-12-10T05:13:03;96019.34;;;8.69;100.00
52983;BME280;48698;45.736;13.926;2022-12-10T05:18:06;95988.34;;;8.46;100.00
52983;BME280;48698;45.736;13.926;2022-12-10T05:23:09;95988.22;;;8.73;100.00
52983;BME280;48698;45.736;13.926;2022-12-10T05:28:34;95998.50;;;8.90;100.00
52983;BME280;48698;45.736;13.926;2022-12-10T05:33:38;96000.19;;;8.91;100.00
52983;BME280;48698;45.736;13.926;2022-12-10T05:38:42;95991.81;;;8.72;100.00
52983;BME280;48698;45.736;13.926;2022-12-10T05:43:57;95953.53;;;8.52;100.00
52983;BME280;48698;45.736;13.926;2022-12-10T05:49:02;95996.06;;;8.62;100.00
52983;BME280;48698;45.736;13.926;2022-12-10T05:54:06;95972.69;;;8.56;100.00
52983;BME280;48698;45.736;13.926;2022-12-10T05:59:10;95964.94;;;8.65;100.00
52983;BME280;48698;45.736;13.926;2022-12-10T06:04:18;95918.94;;;8.30;100.00
52983;BME280;48698;45.736;13.926;2022-12-10T06:09:22;95962.09;;;8.68;100.00
52983;BME280;48698;45.736;13.926;2022-12-10T06:14:26;95933.84;;;8.56;100.00
52983;BME280;48698;45.736;13.926;2022-12-10T06:19:29;95955.53;;;8.74;100.00
52983;BME280;48698;45.736;13.926;2022-12-10T06:24:33;95968.56;;;8.64;100.00
52983;BME280;48698;45.736;13.926;2022-12-10T06:29:46;95912.78;;;8.17;100.00
52983;BME280;48698;45.736;13.926;2022-12-10T06:34:50;95953.53;;;8.52;100.00
52983;BME280;48698;45.736;13.926;2022-12-10T06:39:53;95938.22;;;8.45;100.00
52983;BME280;48698;45.736;13.926;2022-12-10T06:44:57;95980.97;;;8.51;100.00
52983;BME280;48698;45.736;13.926;2022-12-10T06:50:00;95878.72;;;7.87;100.00
52983;BME280;48698;45.736;13.926;2022-12-10T06:55:04;95947.72;;;8.47;100.00
52983;BME280;48698;45.736;13.926;2022-12-10T07:00:08;95964.66;;;8.57;100.00
52983;BME280;48698;45.736;13.926;2022-12-10T07:05:13;95975.75;;;8.62;100.00
52983;BME280;48698;45.736;13.926;2022-12-10T07:10:16;95986.84;;;8.80;100.00
52983;BME280;48698;45.736;13.926;2022-12-10T07:15:20;95896.06;;;8.16;100.00
52983;BME280;48698;45.736;13.926;2022-12-10T07:20:23;95959.56;;;8.54;100.00
52983;BME280;48698;45.736;13.926;2022-12-10T07:25:27;96001.25;;;8.63;100.00
52983;BME280;48698;45.736;13.926;2022-12-10T07:30:33;95919.97;;;8.15;100.00
52983;BME280;48698;45.736;13.926;2022-12-10T07:35:39;95914.78;;;8.13;100.00
52983;BME280;48698;45.736;13.926;2022-12-10T07:40:51;96001.88;;;8.79;100.00
52983;BME280;48698;45.736;13.926;2022-12-10T07:45:54;95994.41;;;8.48;100.00
52983;BME280;48698;45.736;13.926;2022-12-10T07:50:58;95973.63;;;8.42;100.00
52983;BME280;48698;45.736;13.926;2022-12-10T07:56:02;95997.66;;;8.77;100.00
52983;BME280;48698;45.736;13.926;2022-12-10T08:01:08;95970.88;;;8.56;100.00
52983;BME280;48698;45.736;13.926;2022-12-10T08:06:14;95989.19;;;8.72;100.00
52983;BME280;48698;45.736;13.926;2022-12-10T08:11:22;95966.66;;;8.66;100.00
52983;BME280;48698;45.736;13.926;2022-12-10T08:16:28;95998.06;;;8.83;100.00
52983;BME280;48698;45.736;13.926;2022-12-10T08:21:32;95991.28;;;8.92;100.00
52983;BME280;48698;45.736;13.926;2022-12-10T08:26:36;95999.13;;;8.94;100.00
52983;BME280;48698;45.736;13.926;2022-12-10T08:31:39;95985.56;;;8.86;100.00
52983;BME280;48698;45.736;13.926;2022-12-10T08:36:43;95977.31;;;8.90;100.00
52983;BME280;48698;45.736;13.926;2022-12-10T08:41:50;95984.72;;;8.98;100.00
52983;BME280;48698;45.736;13.926;2022-12-10T08:46:54;95945.44;;;8.79;100.00
52983;BME280;48698;45.736;13.926;2022-12-10T08:51:58;95969.25;;;8.92;100.00
52983;BME280;48698;45.736;13.926;2022-12-10T08:57:08;95990.84;;;9.11;100.00
52983;BME280;48698;45.736;13.926;2022-12-10T09:02:12;95984.47;;;9.13;100.00
52983;BME280;48698;45.736;13.926;2022-12-10T09:07:15;95971.78;;;9.06;100.00
52983;BME280;48698;45.736;13.926;2022-12-10T09:12:19;95979.44;;;9.21;100.00
52983;BME280;48698;45.736;13.926;2022-12-10T09:17:23;95953.81;;;9.22;100.00
52983;BME280;48698;45.736;13.926;2022-12-10T09:22:26;95886.59;;;8.75;100.00
52983;BME280;48698;45.736;13.926;2022-12-10T09:27:31;95959.69;;;9.38;100.00
52983;BME280;48698;45.736;13.926;2022-12-10T09:32:34;95952.44;;;9.53;100.00
52983;BME280;48698;45.736;13.926;2022-12-10T09:37:38;95945.16;;;9.44;100.00
52983;BME280;48698;45.736;13.926;2022-12-10T09:42:52;95932.81;;;9.55;100.00
52983;BME280;48698;45.736;13.926;2022-12-10T09:53:22;95900.53;;;9.50;100.00
52983;BME280;48698;45.736;13.926;2022-12-10T09:58:27;95857.59;;;9.10;100.00
52983;BME280;48698;45.736;13.926;2022-12-10T10:03:33;95896.94;;;9.27;100.00
52983;BME280;48698;45.736;13.926;2022-12-10T10:08:43;95866.13;;;8.90;100.00
52983;BME280;48698;45.736;13.926;2022-12-10T10:14:10;95887.00;;;8.95;100.00
52983;BME280;48698;45.736;13.926;2022-12-10T10:19:25;95824.13;;;8.49;100.00
52983;BME280;48698;45.736;13.926;2022-12-10T10:24:35;95878.47;;;8.66;100.00
52983;BME280;48698;45.736;13.926;2022-12-10T10:29:40;95827.34;;;8.29;100.00
52983;BME280;48698;45.736;13.926;2022-12-10T10:34:45;95836.03;;;8.31;100.00
52983;BME280;48698;45.736;13.926;2022-12-10T10:39:50;95809.06;;;7.88;100.00
52983;BME280;48698;45.736;13.926;2022-12-10T10:44:54;95850.91;;;8.07;100.00
52983;BME280;48698;45.736;13.926;2022-12-10T10:49:57;95873.00;;;8.06;100.00
52983;BME280;48698;45.736;13.926;2022-12-10T10:55:02;95856.22;;;7.94;100.00
52983;BME280;48698;45.736;13.926;2022-12-10T11:00:17;95867.28;;;7.99;100.00
52983;BME280;48698;45.736;13.926;2022-12-10T11:05:29;95723.97;;;7.07;100.00
52983;BME280;48698;45.736;13.926;2022-12-10T11:11:01;95821.41;;;7.62;100.00
52983;BME280;48698;45.736;13.926;2022-12-10T11:16:16;95862.66;;;7.90;100.00
52983;BME280;48698;45.736;13.926;2022-12-10T11:21:22;95850.81;;;7.96;100.00
52983;BME280;48698;45.736;13.926;2022-12-10T11:26:40;95852.84;;;8.05;100.00
52983;BME280;48698;45.736;13.926;2022-12-10T11:32:05;95840.44;;;7.93;100.00
52983;BME280;48698;45.736;13.926;2022-12-10T12:03:36;95634.41;;;6.54;100.00
52983;BME280;48698;45.736;13.926;2022-12-10T12:13:56;95755.25;;;7.26;100.00
52983;BME280;48698;45.736;13.926;2022-12-10T12:19:13;95790.75;;;7.35;100.00
52983;BME280;48698;45.736;13.926;2022-12-10T12:24:31;95781.84;;;7.23;100.00
52983;BME280;48698;45.736;13.926;2022-12-10T12:29:44;95728.25;;;6.83;100.00
52983;BME280;48698;45.736;13.926;2022-12-10T12:35:13;95731.44;;;6.75;100.00
52983;BME280;48698;45.736;13.926;2022-12-10T12:45:55;95750.31;;;6.82;100.00
52983;BME280;48698;45.736;13.926;2022-12-10T12:51:03;95776.38;;;6.87;100.00
52983;BME280;48698;45.736;13.926;2022-12-10T12:56:26;95771.00;;;6.75;100.00
52983;BME280;48698;45.736;13.926;2022-12-10T13:01:43;95706.19;;;6.32;100.00
52983;BME280;48698;45.736;13.926;2022-12-10T13:12:17;95774.50;;;6.35;100.00
52983;BME280;48698;45.736;13.926;2022-12-10T13:17:36;95733.31;;;6.20;100.00
52983;BME280;48698;45.736;13.926;2022-12-10T13:23:04;95765.50;;;6.25;100.00
52983;BME280;48698;45.736;13.926;2022-12-10T13:33:49;95596.78;;;5.31;100.00
52983;BME280;48698;45.736;13.926;2022-12-10T13:44:45;95720.66;;;5.84;100.00
52983;BME280;48698;45.736;13.926;2022-12-10T13:49:54;95767.22;;;5.98;100.00
52983;BME280;48698;45.736;13.926;2022-12-10T13:55:22;95740.31;;;5.79;100.00
52983;BME280;48698;45.736;13.926;2022-12-10T14:00:46;95767.44;;;5.95;100.00
52983;BME280;48698;45.736;13.926;2022-12-10T14:06:27;95755.00;;;5.83;100.00
52983;BME280;48698;45.736;13.926;2022-12-10T14:11:38;95734.94;;;5.80;100.00
52983;BME280;48698;45.736;13.926;2022-12-10T14:16:43;95731.84;;;5.73;100.00
52983;BME280;48698;45.736;13.926;2022-12-10T14:21:47;95560.84;;;4.75;100.00
52983;BME280;48698;45.736;13.926;2022-12-10T14:26:57;95725.75;;;5.73;100.00
52983;BME280;48698;45.736;13.926;2022-12-10T14:32:02;95698.84;;;5.54;100.00
52983;BME280;48698;45.736;13.926;2022-12-10T14:37:11;95741.38;;;5.62;100.00
52983;BME280;48698;45.736;13.926;2022-12-10T14:42:17;95736.94;;;5.62;100.00
52983;BME280;48698;45.736;13.926;2022-12-10T14:47:21;95736.56;;;5.54;100.00
52983;BME280;48698;45.736;13.926;2022-12-10T14:52:32;95711.66;;;5.46;100.00
52983;BME280;48698;45.736;13.926;2022-12-10T14:57:42;95726.22;;;5.37;100.00
52983;BME280;48698;45.736;13.926;2022-12-10T15:02:49;95729.31;;;5.44;100.00
52983;BME280;48698;45.736;13.926;2022-12-10T15:08:03;95689.75;;;5.17;100.00
52983;BME280;48698;45.736;13.926;2022-12-10T15:13:18;95721.59;;;5.41;100.00
52983;BME280;48698;45.736;13.926;2022-12-10T15:23:37;95719.53;;;5.32;100.00
52983;BME280;48698;45.736;13.926;2022-12-10T15:28:41;95715.13;;;5.32;100.00
52983;BME280;48698;45.736;13.926;2022-12-10T15:38:51;95667.00;;;5.02;100.00
52983;BME280;48698;45.736;13.926;2022-12-10T15:44:04;95527.00;;;4.12;100.00
52983;BME280;48698;45.736;13.926;2022-12-10T15:49:08;95724.03;;;5.15;100.00
52983;BME280;48698;45.736;13.926;2022-12-10T15:59:23;95612.91;;;4.40;100.00
52983;BME280;48698;45.736;13.926;2022-12-10T16:04:27;95706.22;;;4.91;100.00
52983;BME280;48698;45.736;13.926;2022-12-10T16:09:31;95696.72;;;4.74;100.00
52983;BME280;48698;45.736;13.926;2022-12-10T16:14:35;95608.41;;;4.12;100.00
52983;BME280;48698;45.736;13.926;2022-12-10T16:19:38;95543.91;;;3.62;100.00
52983;BME280;48698;45.736;13.926;2022-12-10T16:24:43;95701.66;;;4.64;100.00
52983;BME280;48698;45.736;13.926;2022-12-10T16:29:47;95650.09;;;4.18;100.00
52983;BME280;48698;45.736;13.926;2022-12-10T16:34:56;95550.84;;;3.63;100.00
52983;BME280;48698;45.736;13.926;2022-12-10T16:40:12;95680.81;;;4.47;100.00
52983;BME280;48698;45.736;13.926;2022-12-10T16:45:36;95701.78;;;4.63;100.00
52983;BME280;48698;45.736;13.926;2022-12-10T16:50:43;95473.81;;;3.19;100.00
52983;BME280;48698;45.736;13.926;2022-12-10T16:55:59;95613.72;;;3.96;100.00
52983;BME280;48698;45.736;13.926;2022-12-10T17:01:02;95680.19;;;4.12;100.00
52983;BME280;48698;45.736;13.926;2022-12-10T17:06:09;95668.03;;;4.26;100.00
52983;BME280;48698;45.736;13.926;2022-12-10T17:16:38;95622.31;;;3.84;100.00
52983;BME280;48698;45.736;13.926;2022-12-10T17:21:42;95682.84;;;3.97;100.00
52983;BME280;48698;45.736;13.926;2022-12-10T17:26:46;95637.28;;;3.67;100.00
52983;BME280;48698;45.736;13.926;2022-12-10T17:31:51;95729.16;;;3.98;100.00
52983;BME280;48698;45.736;13.926;2022-12-10T17:36:55;95606.81;;;3.01;100.00
52983;BME280;48698;45.736;13.926;2022-12-10T17:41:58;95686.81;;;3.41;100.00
52983;BME280;48698;45.736;13.926;2022-12-10T17:47:22;95674.84;;;3.36;100.00
52983;BME280;48698;45.736;13.926;2022-12-10T17:52:25;95601.13;;;2.93;100.00
52983;BME280;48698;45.736;13.926;2022-12-10T17:57:39;95721.47;;;3.63;100.00
52983;BME280;48698;45.736;13.926;2022-12-10T18:02:43;95718.38;;;3.55;100.00
52983;BME280;48698;45.736;13.926;2022-12-10T18:07:47;95707.59;;;3.29;100.00
52983;BME280;48698;45.736;13.926;2022-12-10T18:12:51;95601.44;;;2.54;100.00
52983;BME280;48698;45.736;13.926;2022-12-10T18:17:58;95648.84;;;2.83;100.00
52983;BME280;48698;45.736;13.926;2022-12-10T18:23:04;95608.34;;;2.55;100.00
52983;BME280;48698;45.736;13.926;2022-12-10T18:33:24;95647.66;;;2.73;100.00
52983;BME280;48698;45.736;13.926;2022-12-10T18:38:27;95663.38;;;2.73;100.00
52983;BME280;48698;45.736;13.926;2022-12-10T18:43:50;95653.22;;;2.67;100.00
52983;BME280;48698;45.736;13.926;2022-12-10T18:48:54;95637.25;;;2.71;100.00
52983;BME280;48698;45.736;13.926;2022-12-10T18:54:09;95732.41;;;3.39;100.00
52983;BME280;48698;45.736;13.926;2022-12-10T18:59:17;95744.66;;;3.38;100.00
52983;BME280;48698;45.736;13.926;2022-12-10T19:04:21;95645.72;;;2.76;100.00
52983;BME280;48698;45.736;13.926;2022-12-10T19:09:24;95576.28;;;2.35;100.00
52983;BME280;48698;45.736;13.926;2022-12-10T19:14:44;95699.78;;;3.11;100.00
52983;BME280;48698;45.736;13.926;2022-12-10T19:19:47;95538.25;;;2.11;100.00
52983;BME280;48698;45.736;13.926;2022-12-10T19:24:51;95742.31;;;3.34;100.00
52983;BME280;48698;45.736;13.926;2022-12-10T19:29:54;95656.72;;;2.83;100.00
52983;BME280;48698;45.736;13.926;2022-12-10T19:34:59;95649.38;;;2.89;100.00
52983;BME280;48698;45.736;13.926;2022-12-10T19:40:03;95738.75;;;3.35;100.00
52983;BME280;48698;45.736;13.926;2022-12-10T19:45:07;95671.69;;;2.81;100.00
52983;BME280;48698;45.736;13.926;2022-12-10T19:50:18;95671.69;;;2.81;100.00
52983;BME280;48698;45.736;13.926;2022-12-10T19:55:25;95678.25;;;3.05;100.00
52983;BME280;48698;45.736;13.926;2022-12-10T20:00:30;95717.81;;;3.50;100.00
52983;BME280;48698;45.736;13.926;2022-12-10T20:05:36;95611.91;;;2.72;100.00
52983;BME280;48698;45.736;13.926;2022-12-10T20:10:39;95578.06;;;2.67;100.00
52983;BME280;48698;45.736;13.926;2022-12-10T20:15:44;95666.13;;;3.20;100.00
52983;BME280;48698;45.736;13.926;2022-12-10T20:20:49;95706.16;;;3.23;100.00
52983;BME280;48698;45.736;13.926;2022-12-10T20:25:53;95701.06;;;3.20;100.00
52983;BME280;48698;45.736;13.926;2022-12-10T20:30:57;95712.59;;;3.33;100.00
52983;BME280;48698;45.736;13.926;2022-12-10T20:36:01;95637.59;;;2.98;100.00
52983;BME280;48698;45.736;13.926;2022-12-10T20:41:04;95551.25;;;2.62;100.00
52983;BME280;48698;45.736;13.926;2022-12-10T20:46:26;95496.94;;;2.33;100.00
52983;BME280;48698;45.736;13.926;2022-12-10T20:51:31;95711.63;;;3.67;100.00
52983;BME280;48698;45.736;13.926;2022-12-10T20:56:36;95709.25;;;3.47;100.00
52983;BME280;48698;45.736;13.926;2022-12-10T21:01:49;95704.41;;;3.39;100.00
52983;BME280;48698;45.736;13.926;2022-12-10T21:06:53;95601.84;;;2.80;100.00
52983;BME280;48698;45.736;13.926;2022-12-10T21:11:56;95582.84;;;2.92;100.00
52983;BME280;48698;45.736;13.926;2022-12-10T21:17:06;95704.00;;;3.78;100.00
52983;BME280;48698;45.736;13.926;2022-12-10T21:22:11;95697.25;;;3.74;100.00
52983;BME280;48698;45.736;13.926;2022-12-10T21:27:15;95627.72;;;3.34;100.00
52983;BME280;48698;45.736;13.926;2022-12-10T21:32:28;95589.06;;;3.38;100.00
52983;BME280;48698;45.736;13.926;2022-12-10T21:37:32;95540.16;;;3.21;100.00
52983;BME280;48698;45.736;13.926;2022-12-10T21:42:35;95562.81;;;3.53;100.00
52983;BME280;48698;45.736;13.926;2022-12-10T21:47:59;95439.25;;;2.66;100.00
52983;BME280;48698;45.736;13.926;2022-12-10T21:53:03;95595.13;;;3.70;100.00
52983;BME280;48698;45.736;13.926;2022-12-10T21:58:08;95693.88;;;4.33;100.00
52983;BME280;48698;45.736;13.926;2022-12-10T22:03:15;95504.19;;;3.23;100.00
52983;BME280;48698;45.736;13.926;2022-12-10T22:08:19;95681.50;;;4.35;100.00
52983;BME280;48698;45.736;13.926;2022-12-10T22:13:23;95597.81;;;3.68;100.00
52983;BME280;48698;45.736;13.926;2022-12-10T22:18:26;95613.72;;;3.96;100.00
52983;BME280;48698;45.736;13.926;2022-12-10T22:23:30;95460.94;;;3.30;100.00
52983;BME280;48698;45.736;13.926;2022-12-10T22:28:33;95593.41;;;3.69;100.00
52983;BME280;48698;45.736;13.926;2022-12-10T22:33:37;95470.78;;;3.11;100.00
52983;BME280;48698;45.736;13.926;2022-12-10T22:38:41;95599.66;;;3.82;100.00
52983;BME280;48698;45.736;13.926;2022-12-10T22:43:54;95544.34;;;3.39;100.00
52983;BME280;48698;45.736;13.926;2022-12-10T22:48:58;95706.84;;;4.36;100.00
52983;BME280;48698;45.736;13.926;2022-12-10T22:54:02;95713.44;;;4.28;100.00
52983;BME280;48698;45.736;13.926;2022-12-10T22:59:05;95524.22;;;3.08;100.00
52983;BME280;48698;45.736;13.926;2022-12-10T23:04:10;95748.28;;;4.31;100.00
52983;BME280;48698;45.736;13.926;2022-12-10T23:09:14;95669.28;;;3.89;100.00
52983;BME280;48698;45.736;13.926;2022-12-10T23:14:17;95686.38;;;3.96;100.00
52983;BME280;48698;45.736;13.926;2022-12-10T23:19:20;95667.53;;;4.19;100.00
52983;BME280;48698;45.736;13.926;2022-12-10T23:24:25;95751.06;;;4.59;100.00
52983;BME280;48698;45.736;13.926;2022-12-10T23:29:29;95526.25;;;3.50;100.00
52983;BME280;48698;45.736;13.926;2022-12-10T23:34:35;95639.47;;;3.90;100.00
52983;BME280;48698;45.736;13.926;2022-12-10T23:39:39;95654.00;;;4.11;100.00
52983;BME280;48698;45.736;13.926;2022-12-10T23:44:42;95524.31;;;3.23;100.00
52983;BME280;48698;45.736;13.926;2022-12-10T23:49:46;95691.66;;;4.41;100.00
52983;BME280;48698;45.736;13.926;2022-12-10T23:54:49;95716.00;;;4.29;100.00
52983;BME280;48698;45.736;13.926;2022-12-10T23:59:53;95726.84;;;4.39;100.00
